sensor_id;sensor_type;location;lat;lon;timestamp;P1;durP1;ratioP1;P2;durP2;ratioP2
31730;SDS011;18310;55.586;12.286;2022-10-31T00:01:46;26.73;;;15.52;;
31730;SDS011;18310;55.586;12.286;2022-10-31T00:04:49;34.35;;;16.77;;
31730;SDS011;18310;55.586;12.286;2022-10-31T00:07:52;27.67;;;17.33;;
31730;SDS011;18310;55.586;12.286;2022-10-31T00:10:55;35.03;;;17.95;;
31730;SDS011;18310;55.586;12.286;2022-10-31T00:14:00;33.97;;;16.42;;
31730;SDS011;18310;55.586;12.286;2022-10-31T00:17:03;36.58;;;17.40;;
31730;SDS011;18310;55.586;12.286;2022-10-31T00:20:06;28.20;;;15.15;;
31730;SDS011;18310;55.586;12.286;2022-10-31T00:23:11;27.25;;;16.25;;
31730;SDS011;18310;55.586;12.286;2022-10-31T00:26:14;34.08;;;15.82;;
31730;SDS011;18310;55.586;12.286;2022-10-31T00:29:19;18.90;;;12.55;;
31730;SDS011;18310;55.586;12.286;2022-10-31T00:32:22;20.48;;;12.82;;
31730;SDS011;18310;55.586;12.286;2022-10-31T00:35:25;21.38;;;13.18;;
31730;SDS011;18310;55.586;12.286;2022-10-31T00:38:28;26.20;;;14.53;;
31730;SDS011;18310;55.586;12.286;2022-10-31T00:41:31;21.80;;;13.00;;
31730;SDS011;18310;55.586;12.286;2022-10-31T00:44:36;22.63;;;11.95;;
31730;SDS011;18310;55.586;12.286;2022-10-31T00:47:38;27.33;;;13.38;;
31730;SDS011;18310;55.586;12.286;2022-10-31T00:50:42;21.83;;;12.93;;
31730;SDS011;18310;55.586;12.286;2022-10-31T00:53:45;19.50;;;12.32;;
31730;SDS011;18310;55.586;12.286;2022-10-31T00:56:48;24.23;;;12.90;;
31730;SDS011;18310;55.586;12.286;2022-10-31T00:59:52;22.40;;;12.55;;
31730;SDS011;18310;55.586;12.286;2022-10-31T01:02:55;20.67;;;12.48;;
31730;SDS011;18310;55.586;12.286;2022-10-31T01:06:00;22.63;;;12.00;;
31730;SDS011;18310;55.586;12.286;2022-10-31T01:09:05;20.38;;;12.57;;
31730;SDS011;18310;55.586;12.286;2022-10-31T01:12:09;16.90;;;10.77;;
31730;SDS011;18310;55.586;12.286;2022-10-31T01:15:14;21.67;;;12.88;;
31730;SDS011;18310;55.586;12.286;2022-10-31T01:18:20;17.52;;;11.15;;
31730;SDS011;18310;55.586;12.286;2022-10-31T01:21:23;23.23;;;11.07;;
31730;SDS011;18310;55.586;12.286;2022-10-31T01:24:29;20.08;;;11.73;;
31730;SDS011;18310;55.586;12.286;2022-10-31T01:27:32;16.98;;;9.93;;
31730;SDS011;18310;55.586;12.286;2022-10-31T01:30:37;17.60;;;10.25;;
31730;SDS011;18310;55.586;12.286;2022-10-31T01:33:40;18.48;;;11.48;;
31730;SDS011;18310;55.586;12.286;2022-10-31T01:36:44;21.77;;;11.03;;
31730;SDS011;18310;55.586;12.286;2022-10-31T01:39:52;26.10;;;11.93;;
31730;SDS011;18310;55.586;12.286;2022-10-31T01:42:55;19.17;;;11.73;;
31730;SDS011;18310;55.586;12.286;2022-10-31T01:46:00;25.70;;;13.50;;
31730;SDS011;18310;55.586;12.286;2022-10-31T01:49:04;23.30;;;10.88;;
31730;SDS011;18310;55.586;12.286;2022-10-31T01:52:16;20.67;;;12.75;;
31730;SDS011;18310;55.586;12.286;2022-10-31T01:55:24;18.25;;;11.00;;
31730;SDS011;18310;55.586;12.286;2022-10-31T01:58:31;17.27;;;10.38;;
31730;SDS011;18310;55.586;12.286;2022-10-31T02:01:36;19.75;;;12.25;;
31730;SDS011;18310;55.586;12.286;2022-10-31T02:04:40;15.63;;;10.77;;
31730;SDS011;18310;55.586;12.286;2022-10-31T02:07:45;31.05;;;12.93;;
31730;SDS011;18310;55.586;12.286;2022-10-31T02:10:58;19.75;;;12.40;;
31730;SDS011;18310;55.586;12.286;2022-10-31T02:14:03;21.30;;;12.57;;
31730;SDS011;18310;55.586;12.286;2022-10-31T02:17:08;24.73;;;13.83;;
31730;SDS011;18310;55.586;12.286;2022-10-31T02:20:13;24.38;;;12.77;;
31730;SDS011;18310;55.586;12.286;2022-10-31T02:23:22;17.77;;;11.20;;
31730;SDS011;18310;55.586;12.286;2022-10-31T02:27:05;20.90;;;13.77;;
31730;SDS011;18310;55.586;12.286;2022-10-31T02:30:24;24.40;;;12.80;;
31730;SDS011;18310;55.586;12.286;2022-10-31T02:33:38;22.55;;;13.02;;
31730;SDS011;18310;55.586;12.286;2022-10-31T02:36:50;24.75;;;13.40;;
31730;SDS011;18310;55.586;12.286;2022-10-31T02:40:01;24.42;;;13.30;;
31730;SDS011;18310;55.586;12.286;2022-10-31T02:43:18;23.70;;;13.98;;
31730;SDS011;18310;55.586;12.286;2022-10-31T02:46:31;26.80;;;14.00;;
31730;SDS011;18310;55.586;12.286;2022-10-31T02:49:44;25.23;;;14.15;;
31730;SDS011;18310;55.586;12.286;2022-10-31T02:52:55;24.10;;;13.02;;
31730;SDS011;18310;55.586;12.286;2022-10-31T02:55:58;26.77;;;14.43;;
31730;SDS011;18310;55.586;12.286;2022-10-31T02:59:05;27.00;;;15.07;;
31730;SDS011;18310;55.586;12.286;2022-10-31T03:02:11;31.67;;;15.70;;
31730;SDS011;18310;55.586;12.286;2022-10-31T03:05:40;27.10;;;15.00;;
31730;SDS011;18310;55.586;12.286;2022-10-31T03:08:59;25.23;;;14.75;;
31730;SDS011;18310;55.586;12.286;2022-10-31T03:12:14;27.15;;;14.23;;
31730;SDS011;18310;55.586;12.286;2022-10-31T03:15:27;24.80;;;14.87;;
31730;SDS011;18310;55.586;12.286;2022-10-31T03:18:37;23.83;;;14.27;;
31730;SDS011;18310;55.586;12.286;2022-10-31T03:21:47;26.48;;;14.25;;
31730;SDS011;18310;55.586;12.286;2022-10-31T03:24:57;29.50;;;14.57;;
31730;SDS011;18310;55.586;12.286;2022-10-31T03:28:04;23.85;;;14.05;;
31730;SDS011;18310;55.586;12.286;2022-10-31T03:31:10;23.67;;;14.55;;
31730;SDS011;18310;55.586;12.286;2022-10-31T03:34:19;24.88;;;13.50;;
31730;SDS011;18310;55.586;12.286;2022-10-31T03:37:25;24.92;;;15.57;;
31730;SDS011;18310;55.586;12.286;2022-10-31T03:40:32;28.33;;;15.00;;
31730;SDS011;18310;55.586;12.286;2022-10-31T03:43:41;29.88;;;15.63;;
31730;SDS011;18310;55.586;12.286;2022-10-31T03:46:52;25.58;;;13.55;;
31730;SDS011;18310;55.586;12.286;2022-10-31T03:49:55;24.10;;;12.70;;
31730;SDS011;18310;55.586;12.286;2022-10-31T03:53:02;23.58;;;12.80;;
31730;SDS011;18310;55.586;12.286;2022-10-31T03:56:12;27.95;;;14.63;;
31730;SDS011;18310;55.586;12.286;2022-10-31T03:59:24;24.90;;;13.40;;
31730;SDS011;18310;55.586;12.286;2022-10-31T04:02:35;22.08;;;13.15;;
31730;SDS011;18310;55.586;12.286;2022-10-31T04:05:44;26.45;;;13.73;;
31730;SDS011;18310;55.586;12.286;2022-10-31T04:08:54;27.77;;;14.75;;
31730;SDS011;18310;55.586;12.286;2022-10-31T04:12:04;18.65;;;11.73;;
31730;SDS011;18310;55.586;12.286;2022-10-31T04:15:11;21.85;;;12.15;;
31730;SDS011;18310;55.586;12.286;2022-10-31T04:18:15;25.23;;;13.20;;
31730;SDS011;18310;55.586;12.286;2022-10-31T04:21:18;21.80;;;12.27;;
31730;SDS011;18310;55.586;12.286;2022-10-31T04:24:22;28.60;;;13.70;;
31730;SDS011;18310;55.586;12.286;2022-10-31T04:27:25;28.98;;;15.05;;
31730;SDS011;18310;55.586;12.286;2022-10-31T04:30:28;28.73;;;15.05;;
31730;SDS011;18310;55.586;12.286;2022-10-31T04:33:31;23.95;;;14.60;;
31730;SDS011;18310;55.586;12.286;2022-10-31T04:36:34;26.05;;;14.95;;
31730;SDS011;18310;55.586;12.286;2022-10-31T04:39:39;22.00;;;12.18;;
31730;SDS011;18310;55.586;12.286;2022-10-31T04:42:42;26.75;;;14.85;;
31730;SDS011;18310;55.586;12.286;2022-10-31T04:45:45;26.42;;;14.98;;
31730;SDS011;18310;55.586;12.286;2022-10-31T04:48:48;22.40;;;13.45;;
31730;SDS011;18310;55.586;12.286;2022-10-31T04:51:51;25.50;;;14.07;;
31730;SDS011;18310;55.586;12.286;2022-10-31T04:54:55;23.95;;;13.57;;
31730;SDS011;18310;55.586;12.286;2022-10-31T04:57:58;28.92;;;13.95;;
31730;SDS011;18310;55.586;12.286;2022-10-31T05:01:02;18.58;;;11.23;;
31730;SDS011;18310;55.586;12.286;2022-10-31T05:04:05;20.93;;;12.27;;
31730;SDS011;18310;55.586;12.286;2022-10-31T05:07:08;25.73;;;12.18;;
31730;SDS011;18310;55.586;12.286;2022-10-31T05:10:13;19.25;;;11.30;;
31730;SDS011;18310;55.586;12.286;2022-10-31T05:13:19;23.00;;;11.88;;
31730;SDS011;18310;55.586;12.286;2022-10-31T05:16:27;21.95;;;12.80;;
31730;SDS011;18310;55.586;12.286;2022-10-31T05:19:31;25.45;;;14.20;;
31730;SDS011;18310;55.586;12.286;2022-10-31T05:22:34;27.45;;;14.20;;
31730;SDS011;18310;55.586;12.286;2022-10-31T05:25:39;23.73;;;13.43;;
31730;SDS011;18310;55.586;12.286;2022-10-31T05:28:43;26.58;;;13.77;;
31730;SDS011;18310;55.586;12.286;2022-10-31T05:31:46;23.45;;;14.35;;
31730;SDS011;18310;55.586;12.286;2022-10-31T05:34:49;30.80;;;14.52;;
31730;SDS011;18310;55.586;12.286;2022-10-31T05:37:52;23.50;;;13.75;;
31730;SDS011;18310;55.586;12.286;2022-10-31T05:40:56;17.73;;;10.73;;
31730;SDS011;18310;55.586;12.286;2022-10-31T05:44:01;24.30;;;12.45;;
31730;SDS011;18310;55.586;12.286;2022-10-31T05:47:04;17.70;;;10.85;;
31730;SDS011;18310;55.586;12.286;2022-10-31T05:50:08;26.33;;;14.13;;
31730;SDS011;18310;55.586;12.286;2022-10-31T05:53:12;23.33;;;12.98;;
31730;SDS011;18310;55.586;12.286;2022-10-31T05:56:16;30.23;;;12.53;;
31730;SDS011;18310;55.586;12.286;2022-10-31T05:59:19;28.73;;;13.05;;
31730;SDS011;18310;55.586;12.286;2022-10-31T06:02:22;29.23;;;13.57;;
31730;SDS011;18310;55.586;12.286;2022-10-31T06:05:26;35.28;;;14.95;;
31730;SDS011;18310;55.586;12.286;2022-10-31T06:08:29;34.75;;;14.63;;
31730;SDS011;18310;55.586;12.286;2022-10-31T06:11:34;32.38;;;13.20;;
31730;SDS011;18310;55.586;12.286;2022-10-31T06:14:37;26.33;;;12.43;;
31730;SDS011;18310;55.586;12.286;2022-10-31T06:17:40;28.40;;;13.95;;
31730;SDS011;18310;55.586;12.286;2022-10-31T06:20:43;30.90;;;14.18;;
31730;SDS011;18310;55.586;12.286;2022-10-31T06:23:46;30.35;;;13.57;;
31730;SDS011;18310;55.586;12.286;2022-10-31T06:26:51;25.98;;;13.52;;
31730;SDS011;18310;55.586;12.286;2022-10-31T06:29:54;26.48;;;13.68;;
31730;SDS011;18310;55.586;12.286;2022-10-31T06:33:02;32.58;;;13.00;;
31730;SDS011;18310;55.586;12.286;2022-10-31T06:36:06;26.10;;;13.52;;
31730;SDS011;18310;55.586;12.286;2022-10-31T06:39:10;33.20;;;12.60;;
31730;SDS011;18310;55.586;12.286;2022-10-31T06:42:16;31.48;;;13.48;;
31730;SDS011;18310;55.586;12.286;2022-10-31T06:45:19;29.33;;;13.95;;
31730;SDS011;18310;55.586;12.286;2022-10-31T06:48:22;32.72;;;13.70;;
31730;SDS011;18310;55.586;12.286;2022-10-31T06:54:29;30.48;;;11.63;;
31730;SDS011;18310;55.586;12.286;2022-10-31T06:57:33;31.00;;;11.88;;
31730;SDS011;18310;55.586;12.286;2022-10-31T07:00:36;35.88;;;12.68;;
31730;SDS011;18310;55.586;12.286;2022-10-31T07:03:39;23.55;;;12.18;;
31730;SDS011;18310;55.586;12.286;2022-10-31T07:06:42;21.67;;;11.23;;
31730;SDS011;18310;55.586;12.286;2022-10-31T07:09:52;29.42;;;12.75;;
31730;SDS011;18310;55.586;12.286;2022-10-31T07:12:56;27.42;;;11.93;;
31730;SDS011;18310;55.586;12.286;2022-10-31T07:16:01;30.13;;;12.63;;
31730;SDS011;18310;55.586;12.286;2022-10-31T07:19:07;30.77;;;13.05;;
31730;SDS011;18310;55.586;12.286;2022-10-31T07:22:10;31.87;;;12.23;;
31730;SDS011;18310;55.586;12.286;2022-10-31T07:25:14;20.88;;;10.70;;
31730;SDS011;18310;55.586;12.286;2022-10-31T07:28:18;31.67;;;12.27;;
31730;SDS011;18310;55.586;12.286;2022-10-31T07:31:21;24.15;;;11.77;;
31730;SDS011;18310;55.586;12.286;2022-10-31T07:34:25;24.40;;;11.85;;
31730;SDS011;18310;55.586;12.286;2022-10-31T07:37:28;22.23;;;11.70;;
31730;SDS011;18310;55.586;12.286;2022-10-31T07:40:31;19.80;;;10.85;;
31730;SDS011;18310;55.586;12.286;2022-10-31T07:43:35;21.42;;;10.95;;
31730;SDS011;18310;55.586;12.286;2022-10-31T07:46:39;22.75;;;11.38;;
31730;SDS011;18310;55.586;12.286;2022-10-31T07:49:42;20.25;;;11.40;;
31730;SDS011;18310;55.586;12.286;2022-10-31T07:52:45;19.85;;;10.20;;
31730;SDS011;18310;55.586;12.286;2022-10-31T07:55:48;18.58;;;11.27;;
31730;SDS011;18310;55.586;12.286;2022-10-31T07:58:53;19.27;;;10.90;;
31730;SDS011;18310;55.586;12.286;2022-10-31T08:01:56;22.48;;;10.57;;
31730;SDS011;18310;55.586;12.286;2022-10-31T08:04:59;21.88;;;10.98;;
31730;SDS011;18310;55.586;12.286;2022-10-31T08:08:03;19.50;;;10.10;;
31730;SDS011;18310;55.586;12.286;2022-10-31T08:11:07;17.92;;;9.77;;
31730;SDS011;18310;55.586;12.286;2022-10-31T08:14:11;18.42;;;10.00;;
31730;SDS011;18310;55.586;12.286;2022-10-31T08:17:14;17.85;;;9.88;;
31730;SDS011;18310;55.586;12.286;2022-10-31T08:20:17;14.97;;;9.17;;
31730;SDS011;18310;55.586;12.286;2022-10-31T08:23:21;15.60;;;8.23;;
31730;SDS011;18310;55.586;12.286;2022-10-31T08:26:24;12.23;;;8.07;;
31730;SDS011;18310;55.586;12.286;2022-10-31T08:29:29;17.45;;;9.63;;
31730;SDS011;18310;55.586;12.286;2022-10-31T08:32:32;12.70;;;7.70;;
31730;SDS011;18310;55.586;12.286;2022-10-31T08:35:35;16.33;;;9.55;;
31730;SDS011;18310;55.586;12.286;2022-10-31T08:38:38;17.17;;;9.65;;
31730;SDS011;18310;55.586;12.286;2022-10-31T08:41:41;15.48;;;9.23;;
31730;SDS011;18310;55.586;12.286;2022-10-31T08:44:46;16.20;;;8.63;;
31730;SDS011;18310;55.586;12.286;2022-10-31T08:47:49;15.98;;;9.52;;
31730;SDS011;18310;55.586;12.286;2022-10-31T08:50:55;14.27;;;9.30;;
31730;SDS011;18310;55.586;12.286;2022-10-31T08:54:00;17.40;;;8.55;;
31730;SDS011;18310;55.586;12.286;2022-10-31T08:57:03;12.15;;;8.10;;
31730;SDS011;18310;55.586;12.286;2022-10-31T09:00:08;14.88;;;9.27;;
31730;SDS011;18310;55.586;12.286;2022-10-31T09:03:13;17.17;;;9.23;;
31730;SDS011;18310;55.586;12.286;2022-10-31T09:06:17;13.82;;;8.75;;
31730;SDS011;18310;55.586;12.286;2022-10-31T09:09:21;17.90;;;9.50;;
31730;SDS011;18310;55.586;12.286;2022-10-31T09:12:24;21.80;;;8.35;;
31730;SDS011;18310;55.586;12.286;2022-10-31T09:15:28;14.30;;;8.23;;
31730;SDS011;18310;55.586;12.286;2022-10-31T09:18:32;14.77;;;8.18;;
31730;SDS011;18310;55.586;12.286;2022-10-31T09:21:35;12.57;;;8.23;;
31730;SDS011;18310;55.586;12.286;2022-10-31T09:24:38;15.75;;;8.27;;
31730;SDS011;18310;55.586;12.286;2022-10-31T09:27:41;13.50;;;8.35;;
31730;SDS011;18310;55.586;12.286;2022-10-31T09:30:47;11.15;;;7.57;;
31730;SDS011;18310;55.586;12.286;2022-10-31T09:33:52;13.65;;;7.47;;
31730;SDS011;18310;55.586;12.286;2022-10-31T09:39:58;11.38;;;6.28;;
31730;SDS011;18310;55.586;12.286;2022-10-31T09:43:03;10.98;;;5.97;;
31730;SDS011;18310;55.586;12.286;2022-10-31T09:46:23;8.27;;;5.20;;
31730;SDS011;18310;55.586;12.286;2022-10-31T09:49:37;10.73;;;6.38;;
31730;SDS011;18310;55.586;12.286;2022-10-31T09:53:00;11.32;;;6.45;;
31730;SDS011;18310;55.586;12.286;2022-10-31T09:56:11;9.52;;;5.65;;
31730;SDS011;18310;55.586;12.286;2022-10-31T09:59:24;9.77;;;5.82;;
31730;SDS011;18310;55.586;12.286;2022-10-31T10:02:38;8.27;;;5.22;;
31730;SDS011;18310;55.586;12.286;2022-10-31T10:05:50;16.80;;;5.80;;
31730;SDS011;18310;55.586;12.286;2022-10-31T10:09:02;11.23;;;5.78;;
31730;SDS011;18310;55.586;12.286;2022-10-31T10:12:07;10.27;;;5.50;;
31730;SDS011;18310;55.586;12.286;2022-10-31T10:15:26;8.68;;;5.13;;
31730;SDS011;18310;55.586;12.286;2022-10-31T10:18:56;8.70;;;4.43;;
31730;SDS011;18310;55.586;12.286;2022-10-31T10:22:20;11.20;;;5.18;;
31730;SDS011;18310;55.586;12.286;2022-10-31T10:25:37;11.38;;;6.32;;
31730;SDS011;18310;55.586;12.286;2022-10-31T10:28:43;9.60;;;5.47;;
31730;SDS011;18310;55.586;12.286;2022-10-31T10:31:51;10.13;;;5.28;;
31730;SDS011;18310;55.586;12.286;2022-10-31T10:34:59;8.77;;;4.40;;
31730;SDS011;18310;55.586;12.286;2022-10-31T10:38:18;9.60;;;4.50;;
31730;SDS011;18310;55.586;12.286;2022-10-31T10:41:30;8.70;;;4.70;;
31730;SDS011;18310;55.586;12.286;2022-10-31T10:44:35;8.93;;;4.53;;
31730;SDS011;18310;55.586;12.286;2022-10-31T10:48:04;9.70;;;4.78;;
31730;SDS011;18310;55.586;12.286;2022-10-31T10:51:18;9.20;;;4.65;;
31730;SDS011;18310;55.586;12.286;2022-10-31T10:54:46;6.63;;;3.63;;
31730;SDS011;18310;55.586;12.286;2022-10-31T10:58:06;6.57;;;3.88;;
31730;SDS011;18310;55.586;12.286;2022-10-31T11:01:11;7.85;;;3.65;;
31730;SDS011;18310;55.586;12.286;2022-10-31T11:04:25;6.15;;;3.17;;
31730;SDS011;18310;55.586;12.286;2022-10-31T11:07:40;5.40;;;2.70;;
31730;SDS011;18310;55.586;12.286;2022-10-31T11:10:43;9.13;;;3.17;;
31730;SDS011;18310;55.586;12.286;2022-10-31T11:13:48;4.57;;;2.17;;
31730;SDS011;18310;55.586;12.286;2022-10-31T11:16:55;5.18;;;2.42;;
31730;SDS011;18310;55.586;12.286;2022-10-31T11:20:22;7.18;;;1.90;;
31730;SDS011;18310;55.586;12.286;2022-10-31T11:23:33;5.53;;;2.22;;
31730;SDS011;18310;55.586;12.286;2022-10-31T11:26:37;5.05;;;2.08;;
31730;SDS011;18310;55.586;12.286;2022-10-31T11:29:41;5.63;;;2.20;;
31730;SDS011;18310;55.586;12.286;2022-10-31T11:32:46;4.07;;;2.13;;
31730;SDS011;18310;55.586;12.286;2022-10-31T11:35:53;5.03;;;2.40;;
31730;SDS011;18310;55.586;12.286;2022-10-31T11:39:01;7.65;;;2.75;;
31730;SDS011;18310;55.586;12.286;2022-10-31T11:42:07;4.90;;;2.45;;
31730;SDS011;18310;55.586;12.286;2022-10-31T11:45:13;5.80;;;3.40;;
31730;SDS011;18310;55.586;12.286;2022-10-31T11:48:19;6.03;;;3.40;;
31730;SDS011;18310;55.586;12.286;2022-10-31T11:51:26;6.57;;;3.38;;
31730;SDS011;18310;55.586;12.286;2022-10-31T11:54:36;4.90;;;2.97;;
31730;SDS011;18310;55.586;12.286;2022-10-31T11:57:51;6.45;;;3.15;;
31730;SDS011;18310;55.586;12.286;2022-10-31T12:00:57;5.75;;;3.13;;
31730;SDS011;18310;55.586;12.286;2022-10-31T12:04:03;6.97;;;3.10;;
31730;SDS011;18310;55.586;12.286;2022-10-31T12:07:10;5.82;;;3.25;;
31730;SDS011;18310;55.586;12.286;2022-10-31T12:10:15;5.50;;;2.73;;
31730;SDS011;18310;55.586;12.286;2022-10-31T12:13:30;4.32;;;2.60;;
31730;SDS011;18310;55.586;12.286;2022-10-31T12:16:39;7.72;;;2.75;;
31730;SDS011;18310;55.586;12.286;2022-10-31T12:19:53;4.95;;;2.80;;
31730;SDS011;18310;55.586;12.286;2022-10-31T12:23:09;6.90;;;2.50;;
31730;SDS011;18310;55.586;12.286;2022-10-31T12:26:28;13.15;;;4.53;;
31730;SDS011;18310;55.586;12.286;2022-10-31T12:29:55;9.05;;;3.63;;
31730;SDS011;18310;55.586;12.286;2022-10-31T12:33:25;5.95;;;2.65;;
31730;SDS011;18310;55.586;12.286;2022-10-31T12:36:51;5.40;;;2.45;;
31730;SDS011;18310;55.586;12.286;2022-10-31T12:40:09;4.72;;;2.00;;
31730;SDS011;18310;55.586;12.286;2022-10-31T12:43:39;5.75;;;2.15;;
31730;SDS011;18310;55.586;12.286;2022-10-31T12:46:53;6.25;;;2.70;;
31730;SDS011;18310;55.586;12.286;2022-10-31T12:50:22;6.15;;;2.22;;
31730;SDS011;18310;55.586;12.286;2022-10-31T12:53:42;3.05;;;1.70;;
31730;SDS011;18310;55.586;12.286;2022-10-31T12:57:11;4.47;;;2.15;;
31730;SDS011;18310;55.586;12.286;2022-10-31T13:00:26;4.82;;;2.22;;
31730;SDS011;18310;55.586;12.286;2022-10-31T13:03:32;3.70;;;1.90;;
31730;SDS011;18310;55.586;12.286;2022-10-31T13:06:47;4.18;;;1.83;;
31730;SDS011;18310;55.586;12.286;2022-10-31T13:09:58;5.28;;;2.40;;
31730;SDS011;18310;55.586;12.286;2022-10-31T13:13:06;3.92;;;2.10;;
31730;SDS011;18310;55.586;12.286;2022-10-31T13:16:19;4.90;;;2.00;;
31730;SDS011;18310;55.586;12.286;2022-10-31T13:19:28;6.93;;;2.00;;
31730;SDS011;18310;55.586;12.286;2022-10-31T13:22:38;3.78;;;1.63;;
31730;SDS011;18310;55.586;12.286;2022-10-31T13:25:45;4.13;;;1.70;;
31730;SDS011;18310;55.586;12.286;2022-10-31T13:28:56;5.25;;;1.88;;
31730;SDS011;18310;55.586;12.286;2022-10-31T13:32:08;5.43;;;1.70;;
31730;SDS011;18310;55.586;12.286;2022-10-31T13:35:14;4.90;;;2.17;;
31730;SDS011;18310;55.586;12.286;2022-10-31T13:38:27;4.70;;;2.00;;
31730;SDS011;18310;55.586;12.286;2022-10-31T13:41:43;4.60;;;2.10;;
31730;SDS011;18310;55.586;12.286;2022-10-31T13:44:50;3.07;;;1.63;;
31730;SDS011;18310;55.586;12.286;2022-10-31T13:47:58;5.80;;;2.13;;
31730;SDS011;18310;55.586;12.286;2022-10-31T13:51:24;5.38;;;2.13;;
31730;SDS011;18310;55.586;12.286;2022-10-31T13:54:31;6.45;;;2.20;;
31730;SDS011;18310;55.586;12.286;2022-10-31T13:57:37;7.15;;;1.80;;
31730;SDS011;18310;55.586;12.286;2022-10-31T14:00:45;4.88;;;1.92;;
31730;SDS011;18310;55.586;12.286;2022-10-31T14:04:02;3.97;;;1.83;;
31730;SDS011;18310;55.586;12.286;2022-10-31T14:07:18;5.72;;;2.20;;
31730;SDS011;18310;55.586;12.286;2022-10-31T14:10:25;3.88;;;1.90;;
31730;SDS011;18310;55.586;12.286;2022-10-31T14:13:32;5.30;;;2.08;;
31730;SDS011;18310;55.586;12.286;2022-10-31T14:16:42;4.55;;;1.92;;
31730;SDS011;18310;55.586;12.286;2022-10-31T14:20:01;4.22;;;2.25;;
31730;SDS011;18310;55.586;12.286;2022-10-31T14:23:32;3.97;;;1.95;;
31730;SDS011;18310;55.586;12.286;2022-10-31T14:26:51;5.80;;;2.00;;
31730;SDS011;18310;55.586;12.286;2022-10-31T14:30:06;5.00;;;2.35;;
31730;SDS011;18310;55.586;12.286;2022-10-31T14:33:18;4.57;;;2.33;;
31730;SDS011;18310;55.586;12.286;2022-10-31T14:36:27;4.05;;;2.15;;
31730;SDS011;18310;55.586;12.286;2022-10-31T14:39:47;3.85;;;2.45;;
31730;SDS011;18310;55.586;12.286;2022-10-31T14:43:12;5.07;;;2.53;;
31730;SDS011;18310;55.586;12.286;2022-10-31T14:46:43;5.10;;;2.47;;
31730;SDS011;18310;55.586;12.286;2022-10-31T14:53:21;5.80;;;2.10;;
31730;SDS011;18310;55.586;12.286;2022-10-31T14:56:30;3.90;;;2.45;;
31730;SDS011;18310;55.586;12.286;2022-10-31T14:59:37;4.47;;;2.00;;
31730;SDS011;18310;55.586;12.286;2022-10-31T15:02:50;3.88;;;2.17;;
31730;SDS011;18310;55.586;12.286;2022-10-31T15:06:09;8.25;;;2.50;;
31730;SDS011;18310;55.586;12.286;2022-10-31T15:09:22;5.15;;;2.78;;
31730;SDS011;18310;55.586;12.286;2022-10-31T15:12:28;6.00;;;3.13;;
31730;SDS011;18310;55.586;12.286;2022-10-31T15:15:33;5.63;;;2.50;;
31730;SDS011;18310;55.586;12.286;2022-10-31T15:18:37;4.40;;;2.50;;
31730;SDS011;18310;55.586;12.286;2022-10-31T15:21:49;8.43;;;2.47;;
31730;SDS011;18310;55.586;12.286;2022-10-31T15:24:56;6.65;;;2.33;;
31730;SDS011;18310;55.586;12.286;2022-10-31T15:28:00;6.70;;;2.78;;
31730;SDS011;18310;55.586;12.286;2022-10-31T15:31:03;5.30;;;2.78;;
31730;SDS011;18310;55.586;12.286;2022-10-31T15:34:11;4.72;;;2.75;;
31730;SDS011;18310;55.586;12.286;2022-10-31T15:37:25;5.40;;;2.65;;
31730;SDS011;18310;55.586;12.286;2022-10-31T15:40:31;6.03;;;2.67;;
31730;SDS011;18310;55.586;12.286;2022-10-31T15:43:35;6.68;;;2.85;;
31730;SDS011;18310;55.586;12.286;2022-10-31T15:46:40;5.40;;;2.55;;
31730;SDS011;18310;55.586;12.286;2022-10-31T15:49:47;7.43;;;2.60;;
31730;SDS011;18310;55.586;12.286;2022-10-31T15:52:53;10.10;;;3.88;;
31730;SDS011;18310;55.586;12.286;2022-10-31T15:55:58;9.32;;;4.07;;
31730;SDS011;18310;55.586;12.286;2022-10-31T15:59:11;6.47;;;3.25;;
31730;SDS011;18310;55.586;12.286;2022-10-31T16:02:28;5.63;;;2.78;;
31730;SDS011;18310;55.586;12.286;2022-10-31T16:05:35;6.90;;;2.50;;
31730;SDS011;18310;55.586;12.286;2022-10-31T16:08:44;7.30;;;3.10;;
31730;SDS011;18310;55.586;12.286;2022-10-31T16:11:52;7.88;;;3.40;;
31730;SDS011;18310;55.586;12.286;2022-10-31T16:14:58;5.55;;;2.88;;
31730;SDS011;18310;55.586;12.286;2022-10-31T16:18:01;9.03;;;3.00;;
31730;SDS011;18310;55.586;12.286;2022-10-31T16:21:06;8.63;;;2.88;;
31730;SDS011;18310;55.586;12.286;2022-10-31T16:24:15;7.70;;;3.53;;
31730;SDS011;18310;55.586;12.286;2022-10-31T16:27:30;8.57;;;3.90;;
31730;SDS011;18310;55.586;12.286;2022-10-31T16:30:36;8.52;;;4.60;;
31730;SDS011;18310;55.586;12.286;2022-10-31T16:33:48;8.75;;;4.70;;
31730;SDS011;18310;55.586;12.286;2022-10-31T16:36:54;8.85;;;4.20;;
31730;SDS011;18310;55.586;12.286;2022-10-31T16:39:57;9.80;;;4.70;;
31730;SDS011;18310;55.586;12.286;2022-10-31T16:43:01;8.63;;;4.85;;
31730;SDS011;18310;55.586;12.286;2022-10-31T16:46:05;9.32;;;4.50;;
31730;SDS011;18310;55.586;12.286;2022-10-31T16:49:14;9.57;;;4.50;;
31730;SDS011;18310;55.586;12.286;2022-10-31T16:52:17;14.55;;;6.03;;
31730;SDS011;18310;55.586;12.286;2022-10-31T16:55:21;8.63;;;5.07;;
31730;SDS011;18310;55.586;12.286;2022-10-31T16:58:26;11.57;;;5.23;;
31730;SDS011;18310;55.586;12.286;2022-10-31T17:01:34;10.38;;;5.00;;
31730;SDS011;18310;55.586;12.286;2022-10-31T17:04:37;10.15;;;5.47;;
31730;SDS011;18310;55.586;12.286;2022-10-31T17:07:40;9.80;;;6.38;;
31730;SDS011;18310;55.586;12.286;2022-10-31T17:10:44;11.80;;;6.18;;
31730;SDS011;18310;55.586;12.286;2022-10-31T17:13:50;8.52;;;6.05;;
31730;SDS011;18310;55.586;12.286;2022-10-31T17:16:55;9.50;;;5.72;;
31730;SDS011;18310;55.586;12.286;2022-10-31T17:19:58;9.68;;;5.97;;
31730;SDS011;18310;55.586;12.286;2022-10-31T17:23:01;13.00;;;6.70;;
31730;SDS011;18310;55.586;12.286;2022-10-31T17:26:05;8.15;;;5.40;;
31730;SDS011;18310;55.586;12.286;2022-10-31T17:29:11;13.55;;;5.90;;
31730;SDS011;18310;55.586;12.286;2022-10-31T17:32:15;12.35;;;6.47;;
31730;SDS011;18310;55.586;12.286;2022-10-31T17:35:19;10.98;;;5.97;;
31730;SDS011;18310;55.586;12.286;2022-10-31T17:38:23;10.70;;;6.00;;
31730;SDS011;18310;55.586;12.286;2022-10-31T17:41:26;11.73;;;6.07;;
31730;SDS011;18310;55.586;12.286;2022-10-31T17:44:31;8.93;;;5.95;;
31730;SDS011;18310;55.586;12.286;2022-10-31T17:47:34;13.75;;;6.57;;
31730;SDS011;18310;55.586;12.286;2022-10-31T17:50:38;10.50;;;5.72;;
31730;SDS011;18310;55.586;12.286;2022-10-31T17:53:41;9.73;;;6.43;;
31730;SDS011;18310;55.586;12.286;2022-10-31T17:56:44;11.75;;;6.03;;
31730;SDS011;18310;55.586;12.286;2022-10-31T17:59:49;11.38;;;6.20;;
31730;SDS011;18310;55.586;12.286;2022-10-31T18:02:52;8.48;;;5.88;;
31730;SDS011;18310;55.586;12.286;2022-10-31T18:05:56;14.32;;;7.70;;
31730;SDS011;18310;55.586;12.286;2022-10-31T18:09:01;9.88;;;6.72;;
31730;SDS011;18310;55.586;12.286;2022-10-31T18:12:05;15.45;;;8.15;;
31730;SDS011;18310;55.586;12.286;2022-10-31T18:15:10;21.67;;;10.13;;
31730;SDS011;18310;55.586;12.286;2022-10-31T18:18:13;15.10;;;9.75;;
31730;SDS011;18310;55.586;12.286;2022-10-31T18:21:16;15.05;;;10.27;;
31730;SDS011;18310;55.586;12.286;2022-10-31T18:24:20;14.57;;;9.67;;
31730;SDS011;18310;55.586;12.286;2022-10-31T18:27:23;15.48;;;8.27;;